sensor_id;sensor_type;location;lat;lon;timestamp;P1;durP1;ratioP1;P2;durP2;ratioP2
22205;SDS011;11272;50.104;8.754;2024-02-15T00:01:06;20.50;;;9.07;;
22205;SDS011;11272;50.104;8.754;2024-02-15T00:03:31;18.57;;;8.30;;
22205;SDS011;11272;50.104;8.754;2024-02-15T00:05:58;20.83;;;9.07;;
22205;SDS011;11272;50.104;8.754;2024-02-15T00:08:23;14.57;;;7.17;;
22205;SDS011;11272;50.104;8.754;2024-02-15T00:10:52;19.83;;;9.80;;
22205;SDS011;11272;50.104;8.754;2024-02-15T00:13:18;18.47;;;8.20;;
22205;SDS011;11272;50.104;8.754;2024-02-15T00:15:44;19.57;;;8.90;;
22205;SDS011;11272;50.104;8.754;2024-02-15T00:18:13;23.37;;;9.07;;
22205;SDS011;11272;50.104;8.754;2024-02-15T00:20:39;24.57;;;8.23;;
22205;SDS011;11272;50.104;8.754;2024-02-15T00:23:05;17.20;;;8.20;;
22205;SDS011;11272;50.104;8.754;2024-02-15T00:25:31;19.30;;;8.40;;
22205;SDS011;11272;50.104;8.754;2024-02-15T00:27:57;23.33;;;9.00;;
22205;SDS011;11272;50.104;8.754;2024-02-15T00:30:25;21.20;;;8.83;;
22205;SDS011;11272;50.104;8.754;2024-02-15T00:32:52;17.50;;;9.10;;
22205;SDS011;11272;50.104;8.754;2024-02-15T00:35:18;19.63;;;8.50;;
22205;SDS011;11272;50.104;8.754;2024-02-15T00:37:44;25.30;;;8.60;;
22205;SDS011;11272;50.104;8.754;2024-02-15T00:40:10;14.17;;;7.97;;
22205;SDS011;11272;50.104;8.754;2024-02-15T00:42:36;22.07;;;8.43;;
22205;SDS011;11272;50.104;8.754;2024-02-15T00:45:03;17.10;;;8.43;;
22205;SDS011;11272;50.104;8.754;2024-02-15T00:47:30;16.60;;;8.83;;
22205;SDS011;11272;50.104;8.754;2024-02-15T00:49:55;15.60;;;8.20;;
22205;SDS011;11272;50.104;8.754;2024-02-15T00:52:23;17.60;;;8.97;;
22205;SDS011;11272;50.104;8.754;2024-02-15T00:54:49;17.20;;;7.73;;
22205;SDS011;11272;50.104;8.754;2024-02-15T00:57:14;18.30;;;7.53;;
22205;SDS011;11272;50.104;8.754;2024-02-15T00:59:40;16.23;;;7.60;;
22205;SDS011;11272;50.104;8.754;2024-02-15T01:02:05;13.97;;;6.83;;
22205;SDS011;11272;50.104;8.754;2024-02-15T01:04:31;15.80;;;7.70;;
22205;SDS011;11272;50.104;8.754;2024-02-15T01:06:56;14.43;;;7.87;;
22205;SDS011;11272;50.104;8.754;2024-02-15T01:09:22;11.97;;;6.67;;
22205;SDS011;11272;50.104;8.754;2024-02-15T01:11:48;15.80;;;7.60;;
22205;SDS011;11272;50.104;8.754;2024-02-15T01:14:13;13.33;;;6.70;;
22205;SDS011;11272;50.104;8.754;2024-02-15T01:16:41;8.90;;;6.70;;
22205;SDS011;11272;50.104;8.754;2024-02-15T01:19:07;18.60;;;6.90;;
22205;SDS011;11272;50.104;8.754;2024-02-15T01:21:32;9.67;;;6.63;;
22205;SDS011;11272;50.104;8.754;2024-02-15T01:24:00;13.03;;;7.47;;
22205;SDS011;11272;50.104;8.754;2024-02-15T01:26:26;13.57;;;6.30;;
22205;SDS011;11272;50.104;8.754;2024-02-15T01:28:52;11.00;;;5.83;;
22205;SDS011;11272;50.104;8.754;2024-02-15T01:31:18;14.70;;;6.47;;
22205;SDS011;11272;50.104;8.754;2024-02-15T01:33:44;13.43;;;6.37;;
22205;SDS011;11272;50.104;8.754;2024-02-15T01:36:16;14.00;;;6.67;;
22205;SDS011;11272;50.104;8.754;2024-02-15T01:38:43;13.37;;;6.33;;
22205;SDS011;11272;50.104;8.754;2024-02-15T01:41:10;22.13;;;6.33;;
22205;SDS011;11272;50.104;8.754;2024-02-15T01:43:35;12.60;;;5.97;;
22205;SDS011;11272;50.104;8.754;2024-02-15T01:46:02;13.60;;;6.37;;
22205;SDS011;11272;50.104;8.754;2024-02-15T01:48:34;14.43;;;6.77;;
22205;SDS011;11272;50.104;8.754;2024-02-15T01:51:01;11.40;;;5.87;;
22205;SDS011;11272;50.104;8.754;2024-02-15T01:53:28;16.00;;;5.67;;
22205;SDS011;11272;50.104;8.754;2024-02-15T01:55:56;13.20;;;6.30;;
22205;SDS011;11272;50.104;8.754;2024-02-15T01:58:23;13.57;;;6.97;;
22205;SDS011;11272;50.104;8.754;2024-02-15T02:00:54;13.57;;;6.17;;
22205;SDS011;11272;50.104;8.754;2024-02-15T02:03:21;14.83;;;6.90;;
22205;SDS011;11272;50.104;8.754;2024-02-15T02:05:47;12.93;;;6.00;;
22205;SDS011;11272;50.104;8.754;2024-02-15T02:08:13;11.93;;;6.40;;
22205;SDS011;11272;50.104;8.754;2024-02-15T02:10:38;18.57;;;6.30;;
22205;SDS011;11272;50.104;8.754;2024-02-15T02:13:05;13.60;;;6.33;;
22205;SDS011;11272;50.104;8.754;2024-02-15T02:15:31;11.63;;;5.97;;
22205;SDS011;11272;50.104;8.754;2024-02-15T02:17:57;17.00;;;6.47;;
22205;SDS011;11272;50.104;8.754;2024-02-15T02:20:27;14.00;;;6.70;;
22205;SDS011;11272;50.104;8.754;2024-02-15T02:22:58;16.73;;;6.27;;
22205;SDS011;11272;50.104;8.754;2024-02-15T02:25:32;15.47;;;6.63;;
22205;SDS011;11272;50.104;8.754;2024-02-15T02:27:58;13.07;;;6.70;;
22205;SDS011;11272;50.104;8.754;2024-02-15T02:30:24;13.50;;;6.20;;
22205;SDS011;11272;50.104;8.754;2024-02-15T02:32:54;17.33;;;6.53;;
22205;SDS011;11272;50.104;8.754;2024-02-15T02:35:22;15.67;;;6.33;;
22205;SDS011;11272;50.104;8.754;2024-02-15T02:37:47;12.77;;;6.70;;
22205;SDS011;11272;50.104;8.754;2024-02-15T02:40:13;14.67;;;6.57;;
22205;SDS011;11272;50.104;8.754;2024-02-15T02:42:52;13.20;;;6.00;;
22205;SDS011;11272;50.104;8.754;2024-02-15T02:45:19;12.97;;;6.30;;
22205;SDS011;11272;50.104;8.754;2024-02-15T02:47:47;13.37;;;5.80;;
22205;SDS011;11272;50.104;8.754;2024-02-15T02:50:16;13.40;;;5.87;;
22205;SDS011;11272;50.104;8.754;2024-02-15T02:52:43;12.97;;;5.80;;
22205;SDS011;11272;50.104;8.754;2024-02-15T02:55:09;13.57;;;6.27;;
22205;SDS011;11272;50.104;8.754;2024-02-15T02:57:35;17.50;;;6.50;;
22205;SDS011;11272;50.104;8.754;2024-02-15T03:00:06;16.47;;;6.33;;
22205;SDS011;11272;50.104;8.754;2024-02-15T03:02:40;10.83;;;5.27;;
22205;SDS011;11272;50.104;8.754;2024-02-15T03:05:06;10.00;;;5.50;;
22205;SDS011;11272;50.104;8.754;2024-02-15T03:07:37;13.13;;;5.43;;
22205;SDS011;11272;50.104;8.754;2024-02-15T03:10:04;14.97;;;5.67;;
22205;SDS011;11272;50.104;8.754;2024-02-15T03:12:33;7.47;;;5.00;;
22205;SDS011;11272;50.104;8.754;2024-02-15T03:15:02;12.03;;;5.50;;
22205;SDS011;11272;50.104;8.754;2024-02-15T03:17:38;12.03;;;5.07;;
22205;SDS011;11272;50.104;8.754;2024-02-15T03:20:05;11.47;;;5.20;;
22205;SDS011;11272;50.104;8.754;2024-02-15T03:22:50;10.33;;;5.20;;
22205;SDS011;11272;50.104;8.754;2024-02-15T03:25:16;10.87;;;5.27;;
22205;SDS011;11272;50.104;8.754;2024-02-15T03:27:42;11.37;;;5.00;;
22205;SDS011;11272;50.104;8.754;2024-02-15T03:30:08;10.77;;;5.23;;
22205;SDS011;11272;50.104;8.754;2024-02-15T03:32:35;10.57;;;5.03;;
22205;SDS011;11272;50.104;8.754;2024-02-15T03:35:02;9.90;;;4.83;;
22205;SDS011;11272;50.104;8.754;2024-02-15T03:37:28;12.27;;;4.80;;
22205;SDS011;11272;50.104;8.754;2024-02-15T03:39:54;14.67;;;4.77;;
22205;SDS011;11272;50.104;8.754;2024-02-15T03:42:20;11.90;;;4.60;;
22205;SDS011;11272;50.104;8.754;2024-02-15T03:44:46;8.00;;;4.27;;
22205;SDS011;11272;50.104;8.754;2024-02-15T03:47:13;7.90;;;4.67;;
22205;SDS011;11272;50.104;8.754;2024-02-15T03:49:40;6.53;;;4.50;;
22205;SDS011;11272;50.104;8.754;2024-02-15T03:52:07;8.73;;;4.40;;
22205;SDS011;11272;50.104;8.754;2024-02-15T03:54:37;9.07;;;4.67;;
22205;SDS011;11272;50.104;8.754;2024-02-15T03:57:03;9.43;;;4.40;;
22205;SDS011;11272;50.104;8.754;2024-02-15T03:59:28;9.33;;;4.40;;
22205;SDS011;11272;50.104;8.754;2024-02-15T04:04:35;10.80;;;4.20;;
22205;SDS011;11272;50.104;8.754;2024-02-15T04:07:01;11.80;;;4.57;;
22205;SDS011;11272;50.104;8.754;2024-02-15T04:09:29;11.07;;;4.53;;
22205;SDS011;11272;50.104;8.754;2024-02-15T04:11:55;7.87;;;3.87;;
22205;SDS011;11272;50.104;8.754;2024-02-15T04:14:22;11.50;;;4.20;;
22205;SDS011;11272;50.104;8.754;2024-02-15T04:16:49;6.40;;;4.03;;
22205;SDS011;11272;50.104;8.754;2024-02-15T04:19:18;7.00;;;4.07;;
22205;SDS011;11272;50.104;8.754;2024-02-15T04:21:45;10.07;;;4.53;;
22205;SDS011;11272;50.104;8.754;2024-02-15T04:24:12;7.87;;;4.23;;
22205;SDS011;11272;50.104;8.754;2024-02-15T04:26:38;6.77;;;3.73;;
22205;SDS011;11272;50.104;8.754;2024-02-15T04:29:05;11.73;;;4.00;;
22205;SDS011;11272;50.104;8.754;2024-02-15T04:31:34;6.23;;;3.93;;
22205;SDS011;11272;50.104;8.754;2024-02-15T04:34:02;7.43;;;4.03;;
22205;SDS011;11272;50.104;8.754;2024-02-15T04:39:12;8.27;;;3.80;;
22205;SDS011;11272;50.104;8.754;2024-02-15T04:41:48;6.17;;;3.80;;
22205;SDS011;11272;50.104;8.754;2024-02-15T04:44:14;8.63;;;3.87;;
22205;SDS011;11272;50.104;8.754;2024-02-15T04:46:41;8.40;;;4.00;;
22205;SDS011;11272;50.104;8.754;2024-02-15T04:49:10;6.20;;;3.67;;
22205;SDS011;11272;50.104;8.754;2024-02-15T04:51:35;9.07;;;3.50;;
22205;SDS011;11272;50.104;8.754;2024-02-15T04:54:01;9.20;;;4.43;;
22205;SDS011;11272;50.104;8.754;2024-02-15T04:56:27;7.77;;;3.93;;
22205;SDS011;11272;50.104;8.754;2024-02-15T04:58:53;7.50;;;3.67;;
22205;SDS011;11272;50.104;8.754;2024-02-15T05:01:20;7.33;;;3.77;;
22205;SDS011;11272;50.104;8.754;2024-02-15T05:03:46;8.80;;;4.17;;
22205;SDS011;11272;50.104;8.754;2024-02-15T05:06:12;7.70;;;3.57;;
22205;SDS011;11272;50.104;8.754;2024-02-15T05:11:28;9.03;;;3.60;;
22205;SDS011;11272;50.104;8.754;2024-02-15T05:13:55;9.70;;;4.07;;
22205;SDS011;11272;50.104;8.754;2024-02-15T05:16:23;8.07;;;3.83;;
22205;SDS011;11272;50.104;8.754;2024-02-15T05:18:49;9.20;;;3.57;;
22205;SDS011;11272;50.104;8.754;2024-02-15T05:21:15;8.53;;;3.67;;
22205;SDS011;11272;50.104;8.754;2024-02-15T05:23:40;8.83;;;3.63;;
22205;SDS011;11272;50.104;8.754;2024-02-15T05:26:08;10.67;;;4.00;;
22205;SDS011;11272;50.104;8.754;2024-02-15T05:28:34;6.63;;;3.70;;
22205;SDS011;11272;50.104;8.754;2024-02-15T05:33:52;8.40;;;3.80;;
22205;SDS011;11272;50.104;8.754;2024-02-15T05:36:19;10.67;;;4.40;;
22205;SDS011;11272;50.104;8.754;2024-02-15T05:38:56;8.03;;;3.80;;
22205;SDS011;11272;50.104;8.754;2024-02-15T05:41:23;8.03;;;3.73;;
22205;SDS011;11272;50.104;8.754;2024-02-15T07:04:47;11.03;;;4.20;;
22205;SDS011;11272;50.104;8.754;2024-02-15T07:19:28;10.07;;;4.10;;
22205;SDS011;11272;50.104;8.754;2024-02-15T07:21:54;8.93;;;4.70;;
22205;SDS011;11272;50.104;8.754;2024-02-15T07:24:21;11.77;;;4.67;;
22205;SDS011;11272;50.104;8.754;2024-02-15T07:26:49;7.20;;;4.17;;
22205;SDS011;11272;50.104;8.754;2024-02-15T07:29:18;10.37;;;4.60;;
22205;SDS011;11272;50.104;8.754;2024-02-15T07:31:51;7.27;;;3.90;;
22205;SDS011;11272;50.104;8.754;2024-02-15T07:34:16;7.20;;;4.37;;
22205;SDS011;11272;50.104;8.754;2024-02-15T07:36:42;8.07;;;4.10;;
22205;SDS011;11272;50.104;8.754;2024-02-15T07:56:04;10.57;;;5.27;;
22205;SDS011;11272;50.104;8.754;2024-02-15T07:58:30;10.27;;;4.80;;
22205;SDS011;11272;50.104;8.754;2024-02-15T08:01:01;8.43;;;4.97;;
22205;SDS011;11272;50.104;8.754;2024-02-15T08:03:31;7.13;;;4.20;;
22205;SDS011;11272;50.104;8.754;2024-02-15T08:05:58;7.93;;;4.30;;
22205;SDS011;11272;50.104;8.754;2024-02-15T08:08:23;7.80;;;3.90;;
22205;SDS011;11272;50.104;8.754;2024-02-15T08:10:49;7.73;;;3.73;;
22205;SDS011;11272;50.104;8.754;2024-02-15T08:13:17;8.43;;;3.80;;
22205;SDS011;11272;50.104;8.754;2024-02-15T08:15:43;9.17;;;4.03;;
22205;SDS011;11272;50.104;8.754;2024-02-15T08:18:10;8.07;;;4.10;;
22205;SDS011;11272;50.104;8.754;2024-02-15T08:20:39;7.73;;;4.53;;
22205;SDS011;11272;50.104;8.754;2024-02-15T08:28:49;8.20;;;3.60;;
22205;SDS011;11272;50.104;8.754;2024-02-15T08:31:20;6.27;;;3.60;;
22205;SDS011;11272;50.104;8.754;2024-02-15T08:33:47;8.67;;;4.03;;
22205;SDS011;11272;50.104;8.754;2024-02-15T08:36:14;9.37;;;3.60;;
22205;SDS011;11272;50.104;8.754;2024-02-15T09:09:41;8.03;;;3.40;;
22205;SDS011;11272;50.104;8.754;2024-02-15T09:12:12;5.67;;;3.40;;
22205;SDS011;11272;50.104;8.754;2024-02-15T09:14:39;7.50;;;3.63;;
22205;SDS011;11272;50.104;8.754;2024-02-15T09:17:05;7.87;;;3.80;;
22205;SDS011;11272;50.104;8.754;2024-02-15T09:19:46;6.23;;;3.00;;
22205;SDS011;11272;50.104;8.754;2024-02-15T09:22:15;4.33;;;3.00;;
22205;SDS011;11272;50.104;8.754;2024-02-15T09:24:40;6.27;;;2.87;;
22205;SDS011;11272;50.104;8.754;2024-02-15T09:27:12;8.53;;;3.50;;
22205;SDS011;11272;50.104;8.754;2024-02-15T09:32:27;7.43;;;3.00;;
22205;SDS011;11272;50.104;8.754;2024-02-15T09:34:53;4.83;;;2.47;;
22205;SDS011;11272;50.104;8.754;2024-02-15T09:37:18;6.57;;;2.10;;
22205;SDS011;11272;50.104;8.754;2024-02-15T09:39:44;8.13;;;2.83;;
22205;SDS011;11272;50.104;8.754;2024-02-15T09:42:09;4.47;;;2.13;;
22205;SDS011;11272;50.104;8.754;2024-02-15T09:44:35;4.47;;;1.90;;
22205;SDS011;11272;50.104;8.754;2024-02-15T09:47:04;5.83;;;2.20;;
22205;SDS011;11272;50.104;8.754;2024-02-15T09:49:38;5.67;;;2.00;;
22205;SDS011;11272;50.104;8.754;2024-02-15T09:52:08;3.70;;;1.97;;
22205;SDS011;11272;50.104;8.754;2024-02-15T09:54:42;5.57;;;2.00;;
22205;SDS011;11272;50.104;8.754;2024-02-15T09:57:08;5.93;;;1.90;;
22205;SDS011;11272;50.104;8.754;2024-02-15T09:59:36;4.67;;;2.00;;
22205;SDS011;11272;50.104;8.754;2024-02-15T10:02:02;3.83;;;1.77;;
22205;SDS011;11272;50.104;8.754;2024-02-15T10:04:28;4.50;;;2.20;;
22205;SDS011;11272;50.104;8.754;2024-02-15T10:06:54;6.83;;;2.00;;
22205;SDS011;11272;50.104;8.754;2024-02-15T10:09:26;5.77;;;1.63;;
22205;SDS011;11272;50.104;8.754;2024-02-15T10:11:54;4.17;;;1.70;;
22205;SDS011;11272;50.104;8.754;2024-02-15T10:14:21;7.27;;;2.03;;
22205;SDS011;11272;50.104;8.754;2024-02-15T10:16:47;3.10;;;1.93;;
22205;SDS011;11272;50.104;8.754;2024-02-15T10:19:13;6.90;;;1.93;;
22205;SDS011;11272;50.104;8.754;2024-02-15T10:21:40;5.20;;;1.93;;
22205;SDS011;11272;50.104;8.754;2024-02-15T10:24:06;4.23;;;1.70;;
22205;SDS011;11272;50.104;8.754;2024-02-15T10:26:33;6.67;;;1.80;;
22205;SDS011;11272;50.104;8.754;2024-02-15T10:31:36;4.93;;;1.90;;
22205;SDS011;11272;50.104;8.754;2024-02-15T10:34:04;3.40;;;2.00;;
22205;SDS011;11272;50.104;8.754;2024-02-15T10:36:30;5.17;;;1.87;;
22205;SDS011;11272;50.104;8.754;2024-02-15T10:39:14;5.53;;;2.00;;
22205;SDS011;11272;50.104;8.754;2024-02-15T10:41:48;3.27;;;2.00;;
22205;SDS011;11272;50.104;8.754;2024-02-15T10:44:16;6.23;;;2.33;;
22205;SDS011;11272;50.104;8.754;2024-02-15T10:46:47;6.47;;;2.13;;
22205;SDS011;11272;50.104;8.754;2024-02-15T10:49:17;4.40;;;2.10;;
22205;SDS011;11272;50.104;8.754;2024-02-15T10:51:55;7.40;;;1.93;;
22205;SDS011;11272;50.104;8.754;2024-02-15T10:54:35;5.90;;;1.90;;
22205;SDS011;11272;50.104;8.754;2024-02-15T10:57:06;5.97;;;1.90;;
22205;SDS011;11272;50.104;8.754;2024-02-15T10:59:35;4.93;;;2.27;;
22205;SDS011;11272;50.104;8.754;2024-02-15T11:02:10;3.47;;;2.00;;
22205;SDS011;11272;50.104;8.754;2024-02-15T11:05:03;5.67;;;1.70;;
22205;SDS011;11272;50.104;8.754;2024-02-15T11:07:38;3.73;;;1.70;;
22205;SDS011;11272;50.104;8.754;2024-02-15T11:10:04;5.33;;;1.80;;
22205;SDS011;11272;50.104;8.754;2024-02-15T11:12:36;3.80;;;1.73;;
22205;SDS011;11272;50.104;8.754;2024-02-15T11:15:03;6.13;;;1.73;;
22205;SDS011;11272;50.104;8.754;2024-02-15T11:23:02;3.90;;;1.87;;
22205;SDS011;11272;50.104;8.754;2024-02-15T11:25:33;5.30;;;1.70;;
22205;SDS011;11272;50.104;8.754;2024-02-15T11:30:47;5.30;;;1.57;;
22205;SDS011;11272;50.104;8.754;2024-02-15T11:33:35;2.97;;;1.60;;
22205;SDS011;11272;50.104;8.754;2024-02-15T11:36:04;3.37;;;1.70;;
22205;SDS011;11272;50.104;8.754;2024-02-15T11:38:31;3.73;;;1.73;;
22205;SDS011;11272;50.104;8.754;2024-02-15T11:46:21;5.57;;;1.60;;
22205;SDS011;11272;50.104;8.754;2024-02-15T11:48:50;2.97;;;1.47;;
22205;SDS011;11272;50.104;8.754;2024-02-15T11:51:32;4.37;;;1.60;;
22205;SDS011;11272;50.104;8.754;2024-02-15T11:54:02;4.87;;;1.90;;
22205;SDS011;11272;50.104;8.754;2024-02-15T11:59:13;4.83;;;1.63;;
22205;SDS011;11272;50.104;8.754;2024-02-15T12:01:57;2.97;;;1.40;;
22205;SDS011;11272;50.104;8.754;2024-02-15T12:04:42;4.57;;;1.50;;
22205;SDS011;11272;50.104;8.754;2024-02-15T12:07:28;3.07;;;1.10;;
22205;SDS011;11272;50.104;8.754;2024-02-15T12:10:16;1.30;;;0.87;;
22205;SDS011;11272;50.104;8.754;2024-02-15T12:13:01;2.30;;;1.00;;
22205;SDS011;11272;50.104;8.754;2024-02-15T12:16:00;4.93;;;1.47;;
22205;SDS011;11272;50.104;8.754;2024-02-15T12:18:45;4.03;;;1.30;;
22205;SDS011;11272;50.104;8.754;2024-02-15T12:21:26;3.87;;;1.23;;
22205;SDS011;11272;50.104;8.754;2024-02-15T12:23:53;3.07;;;1.00;;
22205;SDS011;11272;50.104;8.754;2024-02-15T12:26:22;2.70;;;1.33;;
22205;SDS011;11272;50.104;8.754;2024-02-15T12:28:51;3.80;;;1.40;;
22205;SDS011;11272;50.104;8.754;2024-02-15T12:31:20;6.60;;;1.43;;
22205;SDS011;11272;50.104;8.754;2024-02-15T12:33:46;3.63;;;1.20;;
22205;SDS011;11272;50.104;8.754;2024-02-15T12:36:13;5.60;;;1.17;;
22205;SDS011;11272;50.104;8.754;2024-02-15T12:38:39;1.90;;;1.20;;
22205;SDS011;11272;50.104;8.754;2024-02-15T12:41:19;2.13;;;1.27;;
22205;SDS011;11272;50.104;8.754;2024-02-15T12:43:45;4.80;;;1.37;;
22205;SDS011;11272;50.104;8.754;2024-02-15T12:46:11;3.70;;;1.37;;
22205;SDS011;11272;50.104;8.754;2024-02-15T12:48:37;2.53;;;1.20;;
22205;SDS011;11272;50.104;8.754;2024-02-15T12:51:14;2.57;;;1.30;;
22205;SDS011;11272;50.104;8.754;2024-02-15T12:53:41;2.63;;;1.10;;
22205;SDS011;11272;50.104;8.754;2024-02-15T12:56:07;1.63;;;1.10;;
22205;SDS011;11272;50.104;8.754;2024-02-15T12:58:34;3.27;;;1.10;;
22205;SDS011;11272;50.104;8.754;2024-02-15T13:01:00;3.07;;;1.20;;
22205;SDS011;11272;50.104;8.754;2024-02-15T13:03:27;6.07;;;1.10;;
22205;SDS011;11272;50.104;8.754;2024-02-15T13:05:52;1.93;;;1.20;;
22205;SDS011;11272;50.104;8.754;2024-02-15T13:08:18;2.67;;;1.07;;
22205;SDS011;11272;50.104;8.754;2024-02-15T13:10:45;3.07;;;1.43;;
22205;SDS011;11272;50.104;8.754;2024-02-15T13:13:11;2.63;;;1.20;;
22205;SDS011;11272;50.104;8.754;2024-02-15T13:15:39;4.60;;;1.40;;
22205;SDS011;11272;50.104;8.754;2024-02-15T13:18:05;4.50;;;1.30;;
22205;SDS011;11272;50.104;8.754;2024-02-15T13:20:35;3.20;;;1.40;;
22205;SDS011;11272;50.104;8.754;2024-02-15T13:25:45;2.93;;;1.40;;
22205;SDS011;11272;50.104;8.754;2024-02-15T13:28:11;4.73;;;1.10;;
22205;SDS011;11272;50.104;8.754;2024-02-15T13:30:38;2.70;;;1.37;;
22205;SDS011;11272;50.104;8.754;2024-02-15T13:33:04;2.97;;;1.13;;
22205;SDS011;11272;50.104;8.754;2024-02-15T13:35:32;2.37;;;1.37;;
22205;SDS011;11272;50.104;8.754;2024-02-15T13:37:58;2.87;;;1.43;;
22205;SDS011;11272;50.104;8.754;2024-02-15T13:40:24;3.43;;;1.40;;
22205;SDS011;11272;50.104;8.754;2024-02-15T13:42:57;3.30;;;1.30;;
22205;SDS011;11272;50.104;8.754;2024-02-15T13:45:28;5.07;;;1.37;;
22205;SDS011;11272;50.104;8.754;2024-02-15T13:47:58;3.13;;;1.17;;
22205;SDS011;11272;50.104;8.754;2024-02-15T13:50:28;4.30;;;1.20;;
22205;SDS011;11272;50.104;8.754;2024-02-15T13:52:55;2.07;;;1.30;;
22205;SDS011;11272;50.104;8.754;2024-02-15T13:58:10;3.17;;;2.07;;
22205;SDS011;11272;50.104;8.754;2024-02-15T14:00:39;6.07;;;1.30;;
22205;SDS011;11272;50.104;8.754;2024-02-15T14:14:36;2.90;;;1.07;;
22205;SDS011;11272;50.104;8.754;2024-02-15T14:44:57;4.03;;;1.37;;
22205;SDS011;11272;50.104;8.754;2024-02-15T14:56:50;9.93;;;1.87;;
22205;SDS011;11272;50.104;8.754;2024-02-15T14:59:17;5.77;;;1.80;;
22205;SDS011;11272;50.104;8.754;2024-02-15T15:01:42;6.20;;;2.63;;
22205;SDS011;11272;50.104;8.754;2024-02-15T15:07:05;6.23;;;1.80;;
22205;SDS011;11272;50.104;8.754;2024-02-15T15:09:49;6.33;;;1.67;;
22205;SDS011;11272;50.104;8.754;2024-02-15T15:12:43;2.63;;;1.30;;
22205;SDS011;11272;50.104;8.754;2024-02-15T15:15:11;6.00;;;1.70;;
22205;SDS011;11272;50.104;8.754;2024-02-15T15:17:39;3.73;;;1.47;;
22205;SDS011;11272;50.104;8.754;2024-02-15T15:20:06;3.30;;;1.30;;
22205;SDS011;11272;50.104;8.754;2024-02-15T15:22:34;7.53;;;2.17;;
22205;SDS011;11272;50.104;8.754;2024-02-15T15:25:04;8.93;;;2.13;;
22205;SDS011;11272;50.104;8.754;2024-02-15T15:27:30;4.23;;;1.57;;
22205;SDS011;11272;50.104;8.754;2024-02-15T15:29:56;5.83;;;1.80;;
22205;SDS011;11272;50.104;8.754;2024-02-15T15:32:22;4.07;;;1.37;;
22205;SDS011;11272;50.104;8.754;2024-02-15T15:34:49;6.77;;;1.90;;
22205;SDS011;11272;50.104;8.754;2024-02-15T15:37:15;2.63;;;1.53;;
22205;SDS011;11272;50.104;8.754;2024-02-15T15:39:41;6.80;;;2.00;;
22205;SDS011;11272;50.104;8.754;2024-02-15T15:42:07;9.87;;;2.07;;
22205;SDS011;11272;50.104;8.754;2024-02-15T15:44:32;5.17;;;1.97;;
22205;SDS011;11272;50.104;8.754;2024-02-15T15:46:59;9.63;;;2.53;;
22205;SDS011;11272;50.104;8.754;2024-02-15T15:49:25;6.20;;;1.80;;
22205;SDS011;11272;50.104;8.754;2024-02-15T15:51:51;6.07;;;2.23;;
22205;SDS011;11272;50.104;8.754;2024-02-15T15:54:18;10.33;;;2.50;;
22205;SDS011;11272;50.104;8.754;2024-02-15T15:56:45;6.17;;;2.90;;
22205;SDS011;11272;50.104;8.754;2024-02-15T15:59:12;6.60;;;2.20;;
22205;SDS011;11272;50.104;8.754;2024-02-15T16:01:38;8.07;;;2.33;;
22205;SDS011;11272;50.104;8.754;2024-02-15T16:04:06;8.50;;;2.70;;
22205;SDS011;11272;50.104;8.754;2024-02-15T16:06:32;7.10;;;2.80;;
22205;SDS011;11272;50.104;8.754;2024-02-15T16:08:59;3.97;;;1.70;;
22205;SDS011;11272;50.104;8.754;2024-02-15T16:11:25;8.33;;;2.10;;
22205;SDS011;11272;50.104;8.754;2024-02-15T16:13:50;5.27;;;2.20;;
22205;SDS011;11272;50.104;8.754;2024-02-15T16:16:20;7.70;;;2.17;;
22205;SDS011;11272;50.104;8.754;2024-02-15T16:27:12;10.47;;;3.57;;
22205;SDS011;11272;50.104;8.754;2024-02-15T16:41:02;6.73;;;2.37;;
22205;SDS011;11272;50.104;8.754;2024-02-15T16:43:28;11.57;;;2.57;;
22205;SDS011;11272;50.104;8.754;2024-02-15T16:45:54;15.57;;;3.30;;
22205;SDS011;11272;50.104;8.754;2024-02-15T16:51:35;10.83;;;2.80;;
22205;SDS011;11272;50.104;8.754;2024-02-15T17:26:17;50.43;;;20.07;;
22205;SDS011;11272;50.104;8.754;2024-02-15T17:28:45;49.93;;;20.57;;
22205;SDS011;11272;50.104;8.754;2024-02-15T17:31:14;30.03;;;10.30;;
22205;SDS011;11272;50.104;8.754;2024-02-15T17:33:40;14.63;;;5.67;;
22205;SDS011;11272;50.104;8.754;2024-02-15T17:36:06;12.23;;;5.23;;
22205;SDS011;11272;50.104;8.754;2024-02-15T17:38:32;16.80;;;6.47;;
22205;SDS011;11272;50.104;8.754;2024-02-15T17:41:01;12.60;;;4.80;;
22205;SDS011;11272;50.104;8.754;2024-02-15T17:43:31;15.83;;;5.20;;
22205;SDS011;11272;50.104;8.754;2024-02-15T17:46:03;13.17;;;6.00;;
22205;SDS011;11272;50.104;8.754;2024-02-15T17:48:29;20.03;;;6.43;;
22205;SDS011;11272;50.104;8.754;2024-02-15T17:50:56;13.00;;;4.17;;
22205;SDS011;11272;50.104;8.754;2024-02-15T17:53:23;8.57;;;4.23;;
22205;SDS011;11272;50.104;8.754;2024-02-15T17:55:49;8.80;;;3.97;;
22205;SDS011;11272;50.104;8.754;2024-02-15T17:58:17;24.57;;;5.23;;
22205;SDS011;11272;50.104;8.754;2024-02-15T18:00:44;24.97;;;6.43;;
22205;SDS011;11272;50.104;8.754;2024-02-15T18:03:10;12.57;;;5.17;;
22205;SDS011;11272;50.104;8.754;2024-02-15T18:05:36;16.63;;;5.00;;
22205;SDS011;11272;50.104;8.754;2024-02-15T18:08:04;17.33;;;6.03;;
22205;SDS011;11272;50.104;8.754;2024-02-15T18:10:30;9.90;;;5.37;;
22205;SDS011;11272;50.104;8.754;2024-02-15T18:12:56;11.60;;;5.20;;
22205;SDS011;11272;50.104;8.754;2024-02-15T18:15:22;12.07;;;5.07;;
22205;SDS011;11272;50.104;8.754;2024-02-15T18:17:49;9.73;;;5.03;;
22205;SDS011;11272;50.104;8.754;2024-02-15T18:20:21;10.90;;;5.27;;
22205;SDS011;11272;50.104;8.754;2024-02-15T18:22:50;10.17;;;5.27;;
22205;SDS011;11272;50.104;8.754;2024-02-15T18:25:17;11.30;;;4.93;;
22205;SDS011;11272;50.104;8.754;2024-02-15T18:27:44;9.53;;;4.70;;
22205;SDS011;11272;50.104;8.754;2024-02-15T18:30:11;8.73;;;4.43;;
22205;SDS011;11272;50.104;8.754;2024-02-15T18:32:51;7.53;;;4.10;;
22205;SDS011;11272;50.104;8.754;2024-02-15T18:35:19;9.30;;;4.10;;
22205;SDS011;11272;50.104;8.754;2024-02-15T18:37:47;10.03;;;3.60;;
22205;SDS011;11272;50.104;8.754;2024-02-15T18:40:17;6.77;;;3.73;;
22205;SDS011;11272;50.104;8.754;2024-02-15T18:42:43;8.13;;;3.17;;
22205;SDS011;11272;50.104;8.754;2024-02-15T18:45:13;5.73;;;3.57;;
22205;SDS011;11272;50.104;8.754;2024-02-15T18:47:39;9.43;;;3.47;;
22205;SDS011;11272;50.104;8.754;2024-02-15T18:50:05;5.60;;;2.77;;
22205;SDS011;11272;50.104;8.754;2024-02-15T18:52:34;6.30;;;3.10;;
22205;SDS011;11272;50.104;8.754;2024-02-15T18:54:59;7.50;;;2.60;;
22205;SDS011;11272;50.104;8.754;2024-02-15T18:57:26;6.03;;;2.90;;
22205;SDS011;11272;50.104;8.754;2024-02-15T18:59:52;6.30;;;3.20;;
22205;SDS011;11272;50.104;8.754;2024-02-15T19:02:21;7.77;;;3.60;;
22205;SDS011;11272;50.104;8.754;2024-02-15T19:04:48;5.13;;;2.80;;
22205;SDS011;11272;50.104;8.754;2024-02-15T19:07:14;9.43;;;3.13;;
22205;SDS011;11272;50.104;8.754;2024-02-15T19:09:43;6.50;;;2.80;;
22205;SDS011;11272;50.104;8.754;2024-02-15T19:12:11;7.00;;;2.70;;
22205;SDS011;11272;50.104;8.754;2024-02-15T19:14:38;5.40;;;2.60;;
22205;SDS011;11272;50.104;8.754;2024-02-15T19:17:07;8.43;;;3.17;;
22205;SDS011;11272;50.104;8.754;2024-02-15T19:19:36;8.80;;;3.00;;
22205;SDS011;11272;50.104;8.754;2024-02-15T19:22:08;6.70;;;2.60;;
22205;SDS011;11272;50.104;8.754;2024-02-15T19:24:37;5.97;;;2.97;;
22205;SDS011;11272;50.104;8.754;2024-02-15T19:29:48;6.43;;;3.20;;
22205;SDS011;11272;50.104;8.754;2024-02-15T19:32:17;6.20;;;3.07;;
22205;SDS011;11272;50.104;8.754;2024-02-15T19:34:44;6.67;;;3.60;;
22205;SDS011;11272;50.104;8.754;2024-02-15T19:37:12;5.93;;;3.13;;
22205;SDS011;11272;50.104;8.754;2024-02-15T19:39:41;8.60;;;4.33;;
22205;SDS011;11272;50.104;8.754;2024-02-15T19:42:09;10.13;;;4.30;;
22205;SDS011;11272;50.104;8.754;2024-02-15T19:44:45;9.60;;;4.47;;